Time;durP1;ratioP1;P1;durP2;ratioP2;P2;SDS_P1;SDS_P2;PMS_P1;PMS_P2;Temp;Humidity;BMP_temperature;BMP_pressure;BME280_temperature;BME280_humidity;BME280_pressure;Samples;Min_cycle;Max_cycle;Signal;HPM_P1;HPM_P2
2023/10/09 00:05:38;;;;;;;16.60;8.18;;;;;;;18.50;100.00;101356.91;20966547;28;20503;-71
2023/10/09 00:16:14;;;;;;;13.18;8.10;;;;;;;18.48;100.00;101353.34;20968394;28;20052;-70
2023/10/09 00:26:43;;;;;;;15.98;9.00;;;;;;;18.43;100.00;101349.81;20950462;28;20045;-71
2023/10/09 00:37:10;;;;;;;12.35;8.10;;;;;;;18.14;100.00;101352.66;20937846;28;20105;-71
2023/10/09 00:47:40;;;;;;;16.20;9.68;;;;;;;18.14;100.00;101344.66;20993016;28;20068;-70
2023/10/09 00:58:12;;;;;;;13.57;8.27;;;;;;;18.14;100.00;101358.00;21006063;28;20429;-71
2023/10/09 01:08:43;;;;;;;13.65;8.32;;;;;;;18.09;100.00;101361.63;20965922;28;20060;-71
2023/10/09 01:19:13;;;;;;;14.65;8.95;;;;;;;17.98;100.00;101358.13;20959624;28;20052;-71
2023/10/09 01:29:39;;;;;;;13.38;8.40;;;;;;;17.94;100.00;101357.22;20970166;28;20072;-71
2023/10/09 01:40:24;;;;;;;18.42;9.27;;;;;;;17.82;100.00;101371.53;21000873;28;20072;-71
2023/10/09 01:50:48;;;;;;;14.93;8.30;;;;;;;17.80;100.00;101369.75;21007376;28;20117;-71
2023/10/09 02:01:11;;;;;;;15.55;8.70;;;;;;;17.75;100.00;101375.13;20987389;28;20056;-70
2023/10/09 02:11:41;;;;;;;14.18;8.55;;;;;;;17.73;100.00;101384.03;20992058;28;20407;-71
2023/10/09 02:22:12;;;;;;;15.95;9.00;;;;;;;17.68;100.00;101380.50;20972379;28;20382;-71
2023/10/09 02:32:36;;;;;;;15.18;9.45;;;;;;;17.85;100.00;101376.84;20934885;28;20084;-71
2023/10/09 02:42:59;;;;;;;17.35;8.60;;;;;;;18.02;100.00;101371.44;20953441;28;20129;-71
2023/10/09 02:53:29;;;;;;;15.85;8.70;;;;;;;18.09;100.00;101377.66;20972312;28;20048;-71
2023/10/09 03:03:52;;;;;;;18.42;9.98;;;;;;;18.06;100.00;101378.53;20953972;28;20057;-71
2023/10/09 03:14:17;;;;;;;15.60;9.05;;;;;;;17.84;100.00;101377.78;20974775;28;20044;-71
2023/10/09 03:24:41;;;;;;;17.67;9.98;;;;;;;17.84;100.00;101388.47;20998441;28;20044;-70
2023/10/09 03:35:10;;;;;;;16.25;8.93;;;;;;;18.00;100.00;101396.38;20992626;28;20635;-71
2023/10/09 03:45:35;;;;;;;14.30;8.20;;;;;;;18.03;100.00;101388.38;20963821;28;20048;-71
2023/10/09 03:55:59;;;;;;;14.73;9.27;;;;;;;18.02;100.00;101397.28;20994234;28;20036;-70
2023/10/09 04:06:22;;;;;;;13.45;8.90;;;;;;;17.75;100.00;101399.16;20999109;28;20040;-71
2023/10/09 04:16:52;;;;;;;15.65;10.02;;;;;;;17.62;100.00;101400.09;20957732;28;20110;-71
2023/10/09 04:27:17;;;;;;;15.32;8.95;;;;;;;17.47;100.00;101392.97;20980374;28;20469;-71
2023/10/09 04:37:44;;;;;;;15.60;10.07;;;;;;;17.37;100.00;101398.34;21000070;28;20045;-71
2023/10/09 04:48:08;;;;;;;16.27;9.40;;;;;;;17.39;100.00;101405.44;20973303;28;20052;-71
2023/10/09 04:58:39;;;;;;;16.95;9.43;;;;;;;17.42;100.00;101404.56;20980453;28;20060;-70
2023/10/09 05:09:09;;;;;;;17.90;8.80;;;;;;;17.52;100.00;101415.22;20951181;28;20440;-71
2023/10/09 05:30:33;;;;;;;11.95;7.18;;;;;;;18.79;100.00;101454.78;20957722;28;20048;-71
2023/10/09 05:41:30;;;;;;;21.48;10.20;;;;;;;19.51;100.00;101464.00;20977709;28;20055;-71
2023/10/09 05:51:53;;;;;;;11.35;6.97;;;;;;;20.40;100.00;101471.97;20973990;28;20036;-71
2023/10/09 06:13:03;;;;;;;12.77;7.05;;;;;;;21.52;100.00;101470.22;20977026;28;20049;-71
2023/10/09 06:23:57;;;;;;;9.70;6.20;;;;;;;22.02;100.00;101488.09;20949742;28;20047;-71
2023/10/09 06:34:15;;;;;;;10.07;6.25;;;;;;;22.64;100.00;101483.19;20981003;28;20041;-71
2023/10/09 06:44:54;;;;;;;9.73;5.88;;;;;;;23.26;100.00;101480.81;20903761;28;20045;-71
2023/10/09 06:55:32;;;;;;;9.45;5.10;;;;;;;24.33;100.00;101466.22;21034647;28;20060;-72
2023/10/09 07:06:09;;;;;;;8.55;5.13;;;;;;;24.81;100.00;101489.97;21050733;28;20135;-71
2023/10/09 07:16:38;;;;;;;10.30;4.82;;;;;;;25.58;100.00;101470.31;21011441;28;20080;-71
2023/10/09 07:27:06;;;;;;;9.25;4.55;;;;;;;26.24;100.00;101482.31;21011195;28;20137;-71
2023/10/09 07:37:30;;;;;;;10.07;5.60;;;;;;;26.80;100.00;101490.97;20990423;28;20056;-71
2023/10/09 07:48:14;;;;;;;11.65;5.07;;;;;;;27.08;100.00;101483.53;21006749;28;20496;-72
2023/10/09 07:58:45;;;;;;;10.57;4.95;;;;;;;27.55;100.00;101480.69;21023025;28;20051;-71
2023/10/09 08:09:38;;;;;;;9.70;5.00;;;;;;;27.52;100.00;101476.25;21018242;28;20111;-71
2023/10/09 08:20:11;;;;;;;7.72;4.88;;;;;;;28.09;100.00;101490.91;21034001;28;20052;-71
2023/10/09 08:30:50;;;;;;;10.98;5.28;;;;;;;28.52;94.27;101495.25;20967667;28;20048;-72
2023/10/09 08:41:17;;;;;;;9.23;5.13;;;;;;;28.81;87.77;101489.38;20951881;28;20044;-71
2023/10/09 08:51:42;;;;;;;9.40;4.68;;;;;;;28.92;78.73;101491.53;20975599;28;20467;-72
2023/10/09 09:02:05;;;;;;;9.03;4.63;;;;;;;29.18;72.92;101484.81;20932835;28;20053;-72
2023/10/09 09:12:31;;;;;;;9.90;4.65;;;;;;;29.60;64.82;101484.50;20964614;28;20068;-72
2023/10/09 09:22:56;;;;;;;11.63;5.78;;;;;;;29.66;62.53;101473.28;20956637;28;20504;-71
2023/10/09 09:33:26;;;;;;;8.30;5.07;;;;;;;29.84;58.53;101474.16;20951690;28;20057;-72
2023/10/09 09:43:51;;;;;;;8.00;4.78;;;;;;;30.02;53.02;101460.44;20955374;28;20385;-72
2023/10/09 09:54:16;;;;;;;11.35;5.18;;;;;;;30.07;52.30;101454.75;20978184;28;20145;-72
2023/10/09 10:04:42;;;;;;;8.90;5.40;;;;;;;30.21;54.86;101433.09;20987332;28;20599;-71
2023/10/09 10:15:14;;;;;;;7.45;5.07;;;;;;;30.23;57.52;101425.72;21015044;28;20060;-71
2023/10/09 10:25:41;;;;;;;11.18;5.47;;;;;;;30.14;56.90;101408.97;20974266;28;20110;-72
2023/10/09 10:36:06;;;;;;;9.00;5.30;;;;;;;30.27;57.81;101394.59;20980709;28;20667;-71
2023/10/09 10:46:37;;;;;;;12.90;5.23;;;;;;;30.07;58.13;101398.41;20971323;28;20098;-71
2023/10/09 10:57:03;;;;;;;10.07;5.60;;;;;;;29.93;58.34;101384.69;20973353;28;20056;-72
2023/10/09 11:07:26;;;;;;;11.45;5.85;;;;;;;29.89;60.75;101383.06;20972158;28;20048;-71
2023/10/09 11:18:05;;;;;;;10.27;6.00;;;;;;;29.73;64.10;101381.28;20988386;28;20053;-71
2023/10/09 11:28:42;;;;;;;10.52;6.07;;;;;;;29.31;64.32;101369.84;20939596;28;20701;-71
2023/10/09 11:39:50;;;;;;;12.40;6.05;;;;;;;29.28;66.54;101361.81;20983842;28;20056;-71
2023/10/09 11:50:13;;;;;;;9.45;6.28;;;;;;;29.13;66.82;101349.06;20953925;28;20063;-71
2023/10/09 12:00:47;;;;;;;8.65;6.22;;;;;;;28.87;72.41;101346.78;20955136;28;20078;-71
2023/10/09 12:11:11;;;;;;;11.93;6.40;;;;;;;28.50;78.94;101340.44;20932713;28;20059;-72
2023/10/09 12:21:37;;;;;;;12.13;7.13;;;;;;;28.14;88.83;101339.53;20985743;28;20059;-71
2023/10/09 12:32:01;;;;;;;13.55;7.15;;;;;;;27.97;91.58;101348.44;20990148;28;20056;-70
2023/10/09 12:42:28;;;;;;;12.82;7.15;;;;;;;27.71;97.62;101341.50;20929837;28;20488;-71
2023/10/09 12:52:50;;;;;;;10.33;7.50;;;;;;;27.56;99.64;101344.06;20967370;28;20056;-71
2023/10/09 13:03:21;;;;;;;12.40;8.32;;;;;;;27.45;100.00;101344.50;20946337;28;20052;-71
2023/10/09 13:13:47;;;;;;;11.50;7.72;;;;;;;27.55;100.00;101345.03;20973677;28;20260;-70
2023/10/09 13:24:15;;;;;;;12.52;8.15;;;;;;;27.34;100.00;101344.13;20971750;28;20083;-70
2023/10/09 13:34:44;;;;;;;14.02;8.60;;;;;;;27.16;100.00;101337.69;20948467;28;20076;-71
2023/10/09 13:45:15;;;;;;;13.38;8.85;;;;;;;27.14;100.00;101319.72;20932508;28;20051;-71
2023/10/09 13:55:43;;;;;;;13.82;8.98;;;;;;;26.82;100.00;101311.13;20981436;28;20040;-71
2023/10/09 14:06:12;;;;;;;15.05;8.77;;;;;;;26.51;100.00;101291.69;20943276;28;20059;-71
2023/10/09 14:16:35;;;;;;;11.85;9.00;;;;;;;26.24;100.00;101291.00;20909794;28;20514;-70
2023/10/09 14:27:03;;;;;;;12.43;8.70;;;;;;;25.85;100.00;101287.16;21062183;28;20049;-71
2023/10/09 14:37:26;;;;;;;13.27;9.27;;;;;;;25.45;100.00;101291.34;20942013;28;20049;-70
2023/10/09 14:47:50;;;;;;;15.70;9.48;;;;;;;25.27;100.00;101301.00;21027876;28;20068;-70
2023/10/09 14:58:13;;;;;;;13.07;9.95;;;;;;;25.12;100.00;101308.81;21009399;28;20056;-71
2023/10/09 15:08:38;;;;;;;18.52;10.75;;;;;;;24.90;100.00;101306.84;20907703;28;20135;-70
2023/10/09 15:19:02;;;;;;;16.52;10.73;;;;;;;24.66;100.00;101312.19;20965646;28;20049;-69
2023/10/09 15:29:30;;;;;;;14.23;10.50;;;;;;;24.42;100.00;101316.56;20979063;28;20480;-71
2023/10/09 15:39:53;;;;;;;16.42;11.23;;;;;;;24.19;100.00;101314.63;20943052;28;20052;-71
2023/10/09 15:50:17;;;;;;;16.33;11.18;;;;;;;23.98;100.00;101313.44;20951711;28;20113;-70
2023/10/09 16:00:40;;;;;;;13.82;10.90;;;;;;;23.79;100.00;101329.31;20961518;28;20052;-71
2023/10/09 16:11:05;;;;;;;17.25;11.15;;;;;;;23.66;100.00;101343.19;20970367;28;20048;-71
2023/10/09 16:21:29;;;;;;;14.75;12.60;;;;;;;23.51;100.00;101344.50;20957544;28;20060;-71
2023/10/09 16:31:55;;;;;;;15.38;11.07;;;;;;;23.34;100.00;101350.34;20939249;28;20147;-70
2023/10/09 16:42:17;;;;;;;12.15;9.13;;;;;;;23.20;100.00;101352.53;20965607;28;20052;-71
2023/10/09 16:52:43;;;;;;;13.98;9.65;;;;;;;23.10;100.00;101361.81;20949502;28;20052;-71
2023/10/09 17:03:06;;;;;;;14.27;9.40;;;;;;;22.96;100.00;101367.56;20938362;28;20063;-71
2023/10/09 17:13:31;;;;;;;16.83;9.63;;;;;;;22.85;100.00;101379.50;20942776;28;20068;-71
2023/10/09 17:23:54;;;;;;;15.68;10.48;;;;;;;22.72;100.00;101378.88;20949935;28;20052;-71
2023/10/09 17:34:22;;;;;;;14.25;9.88;;;;;;;22.56;100.00;101378.38;20969978;28;20114;-71
2023/10/09 17:44:45;;;;;;;12.97;9.47;;;;;;;22.39;100.00;101387.75;20961452;28;20044;-71
2023/10/09 17:55:12;;;;;;;18.08;10.95;;;;;;;22.32;100.00;101391.53;20947417;28;20621;-70
2023/10/09 18:05:35;;;;;;;12.52;9.35;;;;;;;22.17;100.00;101404.41;20960873;28;20044;-71
2023/10/09 18:16:11;;;;;;;12.10;8.80;;;;;;;22.14;100.00;101401.75;20955447;28;20048;-71
2023/10/09 18:26:34;;;;;;;12.82;9.02;;;;;;;22.11;100.00;101411.72;20950668;28;20106;-70
2023/10/09 18:36:58;;;;;;;11.90;8.70;;;;;;;22.12;100.00;101410.81;20923157;28;20052;-70
2023/10/09 18:47:22;;;;;;;14.70;9.18;;;;;;;22.11;100.00;101411.72;20929267;28;20053;-71
2023/10/09 18:57:47;;;;;;;14.90;9.65;;;;;;;22.13;100.00;101415.25;20996416;28;20044;-71
2023/10/09 19:08:10;;;;;;;16.70;11.32;;;;;;;22.10;100.00;101424.28;21016861;28;20052;-71
2023/10/09 19:18:34;;;;;;;17.25;11.32;;;;;;;22.06;100.00;101425.25;20968129;28;20048;-71
2023/10/09 19:28:57;;;;;;;14.73;9.48;;;;;;;22.03;100.00;101422.63;20992983;28;20047;-71
2023/10/09 19:39:23;;;;;;;14.68;9.30;;;;;;;22.00;100.00;101416.41;20968908;28;20072;-70
2023/10/09 19:49:46;;;;;;;14.20;8.88;;;;;;;21.91;100.00;101422.84;20997582;28;20473;-70
2023/10/09 20:00:12;;;;;;;14.98;8.93;;;;;;;21.86;100.00;101433.69;21010844;28;20451;-70
2023/10/09 20:10:37;;;;;;;13.88;8.88;;;;;;;21.80;100.00;101432.91;20982428;28;20275;-70
2023/10/09 20:21:05;;;;;;;15.88;8.65;;;;;;;21.74;100.00;101424.97;20953561;28;20055;-70
2023/10/09 20:31:28;;;;;;;15.53;8.60;;;;;;;21.73;100.00;101437.53;20960194;28;20147;-70
2023/10/09 20:41:54;;;;;;;16.38;9.02;;;;;;;21.73;100.00;101431.28;20955620;28;20061;-70
2023/10/09 20:52:17;;;;;;;20.73;8.82;;;;;;;21.73;100.00;101424.09;20962688;28;20048;-71
2023/10/09 21:02:45;;;;;;;18.40;8.30;;;;;;;21.77;100.00;101423.13;20962017;28;20522;-71
2023/10/09 21:13:08;;;;;;;20.92;8.88;;;;;;;21.75;100.00;101426.75;20971154;28;20052;-71
2023/10/09 21:23:35;;;;;;;20.20;7.10;;;;;;;21.73;100.00;101407.97;20959989;28;20663;-70
2023/10/09 21:33:58;;;;;;;18.42;7.70;;;;;;;21.69;100.00;101413.44;20974986;28;20048;-70
2023/10/09 21:44:22;;;;;;;20.98;9.18;;;;;;;21.65;100.00;101406.38;20965337;28;20048;-71
2023/10/09 21:54:45;;;;;;;19.52;9.45;;;;;;;21.62;100.00;101396.56;21004460;28;20404;-71
2023/10/09 22:05:11;;;;;;;16.88;8.88;;;;;;;21.62;100.00;101396.56;20952844;28;20048;-71
2023/10/09 22:15:34;;;;;;;23.08;8.07;;;;;;;21.55;100.00;101389.53;20982506;28;20052;-70
2023/10/09 22:26:00;;;;;;;22.40;8.35;;;;;;;21.53;100.00;101385.13;20997249;28;20048;-71
2023/10/09 22:36:27;;;;;;;21.88;8.80;;;;;;;21.47;100.00;101386.09;20970056;28;20052;-71
2023/10/09 22:46:55;;;;;;;19.35;8.32;;;;;;;21.41;100.00;101380.84;20962706;28;20080;-71
2023/10/09 22:57:20;;;;;;;23.23;9.57;;;;;;;21.36;100.00;101385.41;21002865;28;20059;-70
2023/10/09 23:07:58;;;;;;;17.48;8.38;;;;;;;21.32;100.00;101386.41;20985174;28;20091;-70
2023/10/09 23:18:33;;;;;;;19.93;8.87;;;;;;;21.30;100.00;101386.44;20972147;28;20439;-71
2023/10/09 23:29:08;;;;;;;22.52;9.63;;;;;;;21.27;100.00;101381.09;21008667;28;20049;-71
2023/10/09 23:39:52;;;;;;;18.65;8.20;;;;;;;21.42;100.00;101383.50;20980492;28;20053;-70
2023/10/09 23:50:17;;;;;;;18.40;8.10;;;;;;;21.41;100.00;101376.34;20967135;28;20040;-71
